createdAt,value
2018-06-27T00:00:07.572Z,25.1
2018-06-27T00:02:04.787Z,25.1
2018-06-27T00:04:08.130Z,25.1
2018-06-27T00:06:05.342Z,25.2
2018-06-27T00:08:04.966Z,25.2
2018-06-27T00:14:54.843Z,25.2
2018-06-27T00:14:55.057Z,25.2
2018-06-27T00:16:04.595Z,25.1
2018-06-27T00:18:05.257Z,25.2
2018-06-27T00:20:05.121Z,25.1
2018-06-27T00:22:04.786Z,25.2
2018-06-27T00:24:05.514Z,25.2
2018-06-27T00:26:05.198Z,25.1
2018-06-27T00:28:05.372Z,25.1
2018-06-27T00:30:05.034Z,25.1
2018-06-27T00:32:04.709Z,25.2
2018-06-27T00:34:04.912Z,25.1
2018-06-27T00:36:07.716Z,25.1
2018-06-27T00:38:05.388Z,25.1
2018-06-27T00:40:05.032Z,25.1
2018-06-27T00:42:04.709Z,25.1
2018-06-27T00:44:05.404Z,25.1
2018-06-27T00:46:05.103Z,25.1
2018-06-27T00:48:04.794Z,25.1
2018-06-27T00:50:08.024Z,25.1
2018-06-27T00:52:07.278Z,25.1
2018-06-27T00:54:04.977Z,25.1
2018-06-27T00:56:10.199Z,25.1
2018-06-27T00:58:07.923Z,25.1
2018-06-27T01:00:05.319Z,25.1
2018-06-27T01:02:05.552Z,25.1
2018-06-27T01:04:05.242Z,25.1
2018-06-27T01:06:05.051Z,25.1
2018-06-27T01:08:04.736Z,25.1
2018-06-27T01:10:05.471Z,25.1
2018-06-27T01:12:05.148Z,25.1
2018-06-27T01:14:10.407Z,25.1
2018-06-27T01:16:04.668Z,25.1
2018-06-27T01:18:05.579Z,25.1
2018-06-27T01:20:04.777Z,25.1
2018-06-27T01:22:04.856Z,25.1
2018-06-27T01:24:05.519Z,25.1
2018-06-27T01:26:05.336Z,25.1
2018-06-27T01:28:05.078Z,25.1
2018-06-27T01:30:04.818Z,25.1
2018-06-27T01:32:05.536Z,25.1
2018-06-27T01:34:05.270Z,25.1
2018-06-27T01:36:04.975Z,25.1
2018-06-27T01:38:07.198Z,25.1
2018-06-27T01:40:07.419Z,25.1
2018-06-27T01:42:07.639Z,25.1
2018-06-27T01:44:10.396Z,25.1
2018-06-27T01:46:05.071Z,25.1
2018-06-27T01:48:04.785Z,25.1
2018-06-27T01:50:12.588Z,25.1
2018-06-27T01:52:07.329Z,25.1
2018-06-27T01:54:04.996Z,25.1
2018-06-27T01:56:07.206Z,25.1
2018-06-27T01:58:04.918Z,25.1
2018-06-27T02:00:04.713Z,25.1
2018-06-27T02:02:05.385Z,25.1
2018-06-27T02:04:07.580Z,25.1
2018-06-27T02:06:05.229Z,25.1
2018-06-27T02:08:04.953Z,25.1
2018-06-27T02:10:04.713Z,25.1
2018-06-27T02:12:04.950Z,25.1
2018-06-27T02:14:04.702Z,25.1
2018-06-27T02:16:07.904Z,25.1
2018-06-27T02:18:07.910Z,25
2018-06-27T02:20:07.747Z,25.1
2018-06-27T02:22:05.068Z,25.1
2018-06-27T02:24:07.342Z,25.1
2018-06-27T02:26:05.088Z,25.1
2018-06-27T02:28:04.792Z,25.1
2018-06-27T02:30:05.053Z,25.1
2018-06-27T02:32:07.250Z,25.1
2018-06-27T02:34:04.963Z,25.1
2018-06-27T02:36:04.776Z,25.1
2018-06-27T02:38:08.008Z,25
2018-06-27T02:40:04.783Z,25.1
2018-06-27T02:42:08.011Z,25.1
2018-06-27T02:44:04.699Z,25.1
2018-06-27T02:46:04.871Z,25.1
2018-06-27T02:48:05.592Z,25.1
2018-06-27T02:50:10.361Z,25.1
2018-06-27T02:52:05.078Z,25
2018-06-27T02:54:04.777Z,25
2018-06-27T02:56:05.035Z,25
2018-06-27T02:58:04.790Z,25.1
2018-06-27T03:00:05.561Z,25
2018-06-27T03:02:05.267Z,25
2018-06-27T03:04:07.442Z,25
2018-06-27T03:06:05.149Z,25.1
2018-06-27T03:08:07.363Z,25
2018-06-27T03:10:04.721Z,25.1
2018-06-27T03:12:05.426Z,25
2018-06-27T03:14:04.683Z,25
2018-06-27T03:16:05.438Z,25
2018-06-27T03:18:07.919Z,25
2018-06-27T03:20:08.130Z,25
2018-06-27T03:22:13.005Z,25
2018-06-27T03:24:04.748Z,25
2018-06-27T03:26:05.416Z,25
2018-06-27T03:28:05.075Z,25
2018-06-27T03:30:05.291Z,25
2018-06-27T03:32:07.564Z,25
2018-06-27T03:34:10.271Z,25
2018-06-27T03:36:04.967Z,25
2018-06-27T03:38:04.727Z,25
2018-06-27T03:40:12.988Z,25
2018-06-27T03:42:07.222Z,25
2018-06-27T03:44:04.960Z,25
2018-06-27T03:46:07.187Z,25
2018-06-27T03:48:12.555Z,25
2018-06-27T03:50:10.253Z,25
2018-06-27T03:52:05.120Z,25
2018-06-27T03:54:04.848Z,25
2018-06-27T03:56:05.499Z,25
2018-06-27T03:58:05.253Z,25
2018-06-27T04:00:05.011Z,25
2018-06-27T04:02:04.757Z,25
2018-06-27T04:04:08.081Z,25
2018-06-27T04:06:07.300Z,25
2018-06-27T04:08:05.512Z,25
2018-06-27T04:10:05.209Z,25
2018-06-27T04:12:07.447Z,25.1
2018-06-27T04:14:10.277Z,25
2018-06-27T04:16:04.948Z,25
2018-06-27T04:18:04.837Z,25.1
2018-06-27T04:20:05.619Z,25.1
2018-06-27T04:22:07.992Z,25.1
2018-06-27T04:24:04.801Z,25.1
2018-06-27T04:26:08.003Z,25.1
2018-06-27T04:28:04.687Z,25.1
2018-06-27T04:30:07.934Z,25.1
2018-06-27T04:32:09.212Z,25.1
2018-06-27T04:34:07.797Z,25.1
2018-06-27T04:36:07.500Z,25.2
2018-06-27T04:38:05.069Z,25.2
2018-06-27T04:40:04.867Z,25.2
2018-06-27T04:42:08.099Z,25.2
2018-06-27T04:44:10.351Z,25.2
2018-06-27T04:46:18.124Z,25.2
2018-06-27T04:48:04.837Z,25.2
2018-06-27T04:50:05.498Z,25.3
2018-06-27T04:52:05.180Z,25.3
2018-06-27T04:54:04.970Z,25.3
2018-06-27T04:56:05.670Z,25.3
2018-06-27T04:58:07.504Z,25.3
2018-06-27T05:00:07.788Z,25.3
2018-06-27T05:02:05.509Z,25.3
2018-06-27T05:04:04.771Z,25.3
2018-06-27T05:06:08.073Z,25.4
2018-06-27T05:08:04.747Z,25.4
2018-06-27T05:10:10.055Z,25.4
2018-06-27T05:12:04.772Z,25.4
2018-06-27T05:14:05.461Z,25.4
2018-06-27T05:16:07.736Z,25.3
2018-06-27T05:18:04.661Z,25.3
2018-06-27T05:20:07.854Z,25.3
2018-06-27T05:22:05.508Z,25.3
2018-06-27T05:24:05.273Z,25.2
2018-06-27T05:26:15.117Z,25.1
2018-06-27T05:28:04.793Z,25.1
2018-06-27T05:30:08.038Z,25.1
2018-06-27T05:32:05.218Z,25.1
2018-06-27T05:34:05.065Z,25.1
2018-06-27T05:36:04.774Z,25
2018-06-27T05:38:05.431Z,25.1
2018-06-27T05:40:04.724Z,25
2018-06-27T05:42:05.425Z,25
2018-06-27T05:44:07.132Z,25
2018-06-27T05:46:05.456Z,25
2018-06-27T05:48:07.808Z,25.1
2018-06-27T05:50:05.494Z,25.1
2018-06-27T05:52:04.697Z,25.1
2018-06-27T05:54:05.353Z,25.2
2018-06-27T05:56:05.024Z,25.3
2018-06-27T05:58:07.794Z,25.3
2018-06-27T06:00:04.795Z,25.3
2018-06-27T06:02:10.556Z,25.3
2018-06-27T06:04:07.803Z,25.3
2018-06-27T06:06:05.097Z,25.3
2018-06-27T06:08:04.836Z,25.4
2018-06-27T06:10:05.556Z,25.4
2018-06-27T06:12:05.300Z,25.4
2018-06-27T06:14:07.658Z,25.3
2018-06-27T06:16:05.908Z,25.3
2018-06-27T06:18:04.798Z,25.4
2018-06-27T06:20:05.443Z,25.3
2018-06-27T06:22:10.173Z,25.3
2018-06-27T06:24:04.871Z,25.3
2018-06-27T06:26:05.599Z,25.3
2018-06-27T06:28:05.330Z,25.4
2018-06-27T06:30:07.616Z,25.4
2018-06-27T06:32:05.328Z,25.4
2018-06-27T06:34:05.160Z,25.5
2018-06-27T06:36:05.090Z,25.6
2018-06-27T06:38:04.787Z,25.5
2018-06-27T06:40:07.731Z,25.6
2018-06-27T06:42:07.976Z,25.6
2018-06-27T06:44:04.723Z,25.6
2018-06-27T06:46:04.727Z,25.6
2018-06-27T06:48:05.563Z,25.7
2018-06-27T06:50:05.427Z,25.7
2018-06-27T06:52:05.393Z,25.6
2018-06-27T06:54:05.486Z,25.7
2018-06-27T06:56:05.478Z,25.7
2018-06-27T06:58:05.426Z,25.7
2018-06-27T07:00:05.181Z,25.8
2018-06-27T07:02:04.857Z,25.8
2018-06-27T07:04:05.660Z,25.8
2018-06-27T07:06:05.537Z,25.7
2018-06-27T07:08:05.176Z,25.8
2018-06-27T07:10:05.348Z,25.7
2018-06-27T07:12:08.098Z,25.8
2018-06-27T07:14:04.784Z,25.8
2018-06-27T07:16:08.145Z,25.8
2018-06-27T07:18:05.043Z,25.8
2018-06-27T07:20:04.726Z,25.7
2018-06-27T07:22:10.449Z,25.7
2018-06-27T07:24:05.189Z,25.7
2018-06-27T07:26:04.888Z,25.8
2018-06-27T07:28:08.169Z,25.8
2018-06-27T07:30:04.891Z,25.8
2018-06-27T07:32:05.651Z,25.8
2018-06-27T07:34:05.343Z,25.8
2018-06-27T07:36:05.112Z,25.8
2018-06-27T07:38:05.097Z,25.8
2018-06-27T07:40:04.869Z,25.8
2018-06-27T07:42:05.118Z,25.7
2018-06-27T07:44:05.358Z,25.8
2018-06-27T07:46:05.056Z,25.9
2018-06-27T07:48:04.768Z,25.9
2018-06-27T07:50:07.505Z,25.9
2018-06-27T07:52:05.224Z,25.9
2018-06-27T07:54:05.008Z,25.9
2018-06-27T07:56:04.689Z,25.9
2018-06-27T07:58:05.372Z,26
2018-06-27T08:00:05.580Z,26
2018-06-27T08:02:05.490Z,25.9
2018-06-27T08:04:10.258Z,26
2018-06-27T08:06:04.941Z,26
2018-06-27T08:08:04.721Z,26
2018-06-27T08:10:05.374Z,26
2018-06-27T08:12:05.093Z,26
2018-06-27T08:14:04.813Z,26
2018-06-27T08:16:05.921Z,26
2018-06-27T08:18:05.120Z,26.1
2018-06-27T08:20:05.113Z,26
2018-06-27T08:22:04.839Z,26.1
2018-06-27T08:24:05.634Z,26
2018-06-27T08:26:05.375Z,26
2018-06-27T08:28:05.540Z,26.1
2018-06-27T08:30:07.282Z,26.1
2018-06-27T08:32:04.961Z,26.1
2018-06-27T08:34:10.286Z,26.1
2018-06-27T08:36:04.724Z,26.1
2018-06-27T08:38:05.377Z,26.2
2018-06-27T08:40:05.084Z,26.2
2018-06-27T08:42:05.356Z,26.1
2018-06-27T08:44:04.988Z,26.1
2018-06-27T08:46:07.240Z,26.1
2018-06-27T08:48:09.927Z,26.1
2018-06-27T08:50:04.777Z,26.2
2018-06-27T08:52:05.752Z,26.2
2018-06-27T08:54:05.511Z,26.2
2018-06-27T08:56:05.279Z,26.2
2018-06-27T08:58:05.497Z,26.2
2018-06-27T09:00:07.246Z,26.2
2018-06-27T09:02:04.939Z,26.2
2018-06-27T09:04:04.722Z,26.2
2018-06-27T09:06:05.381Z,26.2
2018-06-27T09:08:05.096Z,26.1
2018-06-27T09:10:04.771Z,26.1
2018-06-27T09:12:10.054Z,26.2
2018-06-27T09:14:05.299Z,26.2
2018-06-27T09:16:04.972Z,26.1
2018-06-27T09:18:04.854Z,26.1
2018-06-27T09:20:07.343Z,26.1
2018-06-27T09:22:05.001Z,26.1
2018-06-27T09:24:05.226Z,26.1
2018-06-27T09:26:05.474Z,26
2018-06-27T09:28:07.683Z,26
2018-06-27T09:30:05.411Z,26
2018-06-27T09:32:05.120Z,26.1
2018-06-27T09:34:07.979Z,26.1
2018-06-27T09:36:07.443Z,26.1
2018-06-27T09:38:04.908Z,26.1
2018-06-27T09:40:05.622Z,26.1
2018-06-27T09:42:05.530Z,26
2018-06-27T09:44:07.537Z,26.1
2018-06-27T09:46:05.336Z,26.1
2018-06-27T09:48:05.552Z,26.1
2018-06-27T09:50:04.871Z,26.1
2018-06-27T09:52:05.548Z,26.1
2018-06-27T09:54:05.289Z,26.1
2018-06-27T09:56:12.566Z,26.1
2018-06-27T09:58:05.242Z,26.1
2018-06-27T10:00:07.523Z,26.1
2018-06-27T10:02:05.257Z,26.1
2018-06-27T10:04:12.736Z,26.1
2018-06-27T10:06:05.480Z,26.1
2018-06-27T10:08:12.822Z,26.1
2018-06-27T10:10:08.027Z,26.1
2018-06-27T10:12:09.747Z,26.1
2018-06-27T10:14:05.446Z,26.2
2018-06-27T10:16:05.169Z,26.2
2018-06-27T10:18:05.157Z,26.1
2018-06-27T10:20:05.109Z,26.2
2018-06-27T10:22:04.796Z,26.1
2018-06-27T10:24:05.025Z,26.2
2018-06-27T10:26:07.213Z,26.1
2018-06-27T10:28:04.946Z,26.1
2018-06-27T10:30:04.736Z,26.1
2018-06-27T10:32:04.985Z,26.2
2018-06-27T10:34:04.650Z,26.2
2018-06-27T10:36:05.392Z,26.2
2018-06-27T10:38:05.244Z,26.2
2018-06-27T10:40:04.998Z,26.2
2018-06-27T10:42:12.810Z,26.1
2018-06-27T10:44:05.499Z,26.1
2018-06-27T10:46:07.204Z,26.1
2018-06-27T10:48:07.501Z,26.1
2018-06-27T10:50:05.154Z,26.1
2018-06-27T10:52:07.882Z,26.2
2018-06-27T10:54:05.131Z,26.2
2018-06-27T10:56:04.883Z,26.2
2018-06-27T10:58:17.934Z,26.2
2018-06-27T11:00:05.173Z,26.2
2018-06-27T11:02:07.386Z,26.2
2018-06-27T11:04:05.651Z,26.2
2018-06-27T11:06:05.322Z,26.2
2018-06-27T11:08:05.005Z,26.2
2018-06-27T11:10:04.765Z,26.2
2018-06-27T11:12:05.530Z,26.3
2018-06-27T11:14:05.281Z,26.2
2018-06-27T11:16:05.386Z,26.2
2018-06-27T11:18:05.298Z,26.3
2018-06-27T11:20:08.018Z,26.2
2018-06-27T11:22:05.296Z,26.2
2018-06-27T11:24:08.052Z,26.1
2018-06-27T11:26:04.755Z,26.1
2018-06-27T11:28:04.683Z,26.1
2018-06-27T11:30:07.487Z,26.1
2018-06-27T11:32:07.246Z,26
2018-06-27T11:34:08.016Z,26
2018-06-27T11:36:04.693Z,26
2018-06-27T11:38:13.093Z,25.9
2018-06-27T11:40:07.379Z,26
2018-06-27T11:42:07.596Z,26.1
2018-06-27T11:44:05.253Z,26
2018-06-27T11:46:04.953Z,26
2018-06-27T11:48:04.715Z,26
2018-06-27T11:50:05.404Z,25.9
2018-06-27T11:52:05.126Z,26
2018-06-27T11:54:05.060Z,25.9
2018-06-27T11:56:07.255Z,26
2018-06-27T11:58:08.032Z,26
2018-06-27T12:00:04.872Z,26
2018-06-27T12:02:05.609Z,26.1
2018-06-27T12:04:05.308Z,26.2
2018-06-27T12:06:05.047Z,26.1
2018-06-27T12:08:07.295Z,26
2018-06-27T12:10:05.020Z,26
2018-06-27T12:12:04.712Z,26
2018-06-27T12:14:05.027Z,26
2018-06-27T12:16:07.298Z,26
2018-06-27T12:18:05.327Z,26
2018-06-27T12:20:04.986Z,26
2018-06-27T12:22:04.691Z,26
2018-06-27T12:24:07.875Z,25.9
2018-06-27T12:26:10.598Z,25.9
2018-06-27T12:28:10.423Z,26
2018-06-27T12:30:04.706Z,26
2018-06-27T12:32:05.408Z,26.1
2018-06-27T12:34:07.596Z,26.2
2018-06-27T12:36:10.456Z,26.2
2018-06-27T12:38:05.171Z,26.2
2018-06-27T12:40:04.846Z,26.2
2018-06-27T12:42:05.118Z,26.2
2018-06-27T12:44:04.781Z,26.2
2018-06-27T12:46:04.980Z,26.2
2018-06-27T12:48:04.631Z,26.2
2018-06-27T12:50:08.033Z,26.3
2018-06-27T12:52:05.007Z,26.2
2018-06-27T12:54:05.228Z,26.2
2018-06-27T12:56:04.936Z,26.2
2018-06-27T12:58:04.651Z,26.3
2018-06-27T13:00:20.809Z,26.3
2018-06-27T13:02:07.279Z,26.3
2018-06-27T13:04:05.616Z,26.3
2018-06-27T13:06:05.355Z,26.3
2018-06-27T13:08:05.183Z,26.3
2018-06-27T13:10:04.905Z,26.3
2018-06-27T13:12:05.139Z,26.3
2018-06-27T13:14:13.430Z,26.3
2018-06-27T13:16:05.189Z,26.3
2018-06-27T13:18:05.091Z,26.3
2018-06-27T13:20:08.250Z,26.3
2018-06-27T13:22:04.929Z,26.3
2018-06-27T13:24:08.110Z,26.4
2018-06-27T13:26:05.883Z,26.4
2018-06-27T13:28:05.149Z,26.4
2018-06-27T13:30:07.348Z,26.4
2018-06-27T13:32:05.109Z,26.4
2018-06-27T13:34:05.348Z,26.4
2018-06-27T13:36:05.054Z,26.4
2018-06-27T13:38:04.752Z,26.4
2018-06-27T13:40:07.509Z,26.4
2018-06-27T13:42:10.276Z,26.4
2018-06-27T13:44:04.936Z,26.4
2018-06-27T13:46:04.600Z,26.4
2018-06-27T13:48:05.265Z,26.4
2018-06-27T13:50:08.108Z,26.5
2018-06-27T13:52:05.162Z,26.4
2018-06-27T13:54:05.765Z,26.4
2018-06-27T13:56:05.312Z,26.4
2018-06-27T13:58:05.609Z,26.4
2018-06-27T14:00:05.304Z,26.4
2018-06-27T14:02:08.022Z,26.5
2018-06-27T14:04:04.735Z,26.5
2018-06-27T14:06:05.489Z,26.4
2018-06-27T14:08:05.165Z,26.5
2018-06-27T14:10:04.931Z,26.5
2018-06-27T14:12:05.144Z,26.4
2018-06-27T14:14:04.877Z,26.4
2018-06-27T14:16:13.173Z,26.4
2018-06-27T14:18:05.057Z,26.4
2018-06-27T14:20:07.262Z,26.4
2018-06-27T14:22:07.468Z,26.5
2018-06-27T14:24:05.229Z,26.4
2018-06-27T14:26:05.575Z,26.4
2018-06-27T14:28:07.901Z,26.4
2018-06-27T14:30:08.128Z,26.5
2018-06-27T14:32:07.420Z,26.4
2018-06-27T14:34:05.149Z,26.4
2018-06-27T14:36:04.870Z,26.4
2018-06-27T14:38:05.132Z,26.5
2018-06-27T14:40:04.989Z,26.5
2018-06-27T14:42:07.812Z,26.4
2018-06-27T14:44:10.627Z,26.5
2018-06-27T14:46:05.301Z,26.5
2018-06-27T14:48:04.942Z,26.5
2018-06-27T14:50:04.730Z,26.5
2018-06-27T14:52:05.495Z,26.5
2018-06-27T14:54:05.353Z,26.5
2018-06-27T14:56:05.056Z,26.5
2018-06-27T14:58:05.277Z,26.4
2018-06-27T15:00:07.498Z,26.3
2018-06-27T15:02:05.168Z,26.3
2018-06-27T15:04:05.484Z,26.4
2018-06-27T15:06:05.165Z,26.4
2018-06-27T15:08:05.368Z,26.4
2018-06-27T15:10:05.020Z,26.4
2018-06-27T15:12:05.253Z,26.4
2018-06-27T15:14:04.936Z,26.4
2018-06-27T15:16:05.311Z,26.3
2018-06-27T15:18:05.309Z,26.3
2018-06-27T15:20:05.096Z,26.4
2018-06-27T15:22:08.578Z,26.3
2018-06-27T15:24:05.249Z,26.3
2018-06-27T15:26:10.084Z,26.4
2018-06-27T15:28:05.374Z,26.4
2018-06-27T15:30:05.103Z,26.5
2018-06-27T15:32:04.817Z,26.4
2018-06-27T15:34:05.567Z,26.4
2018-06-27T15:36:05.641Z,26.4
2018-06-27T15:38:07.859Z,26.5
2018-06-27T15:40:10.800Z,26.5
2018-06-27T15:42:10.320Z,26.6
2018-06-27T15:44:05.012Z,26.6
2018-06-27T15:46:04.678Z,26.6
2018-06-27T15:48:04.973Z,26.5
2018-06-27T15:50:04.951Z,26.6
2018-06-27T15:52:05.156Z,26.6
2018-06-27T15:54:05.373Z,26.6
2018-06-27T15:56:10.601Z,26.6
2018-06-27T15:58:04.987Z,26.6
2018-06-27T16:00:04.726Z,26.6
2018-06-27T16:02:05.462Z,26.6
2018-06-27T16:04:05.146Z,26.7
2018-06-27T16:06:05.517Z,26.7
2018-06-27T16:08:10.260Z,26.7
2018-06-27T16:10:07.474Z,26.7
2018-06-27T16:12:05.107Z,26.7
2018-06-27T16:14:04.880Z,26.7
2018-06-27T16:16:05.795Z,26.6
2018-06-27T16:18:04.762Z,26.7
2018-06-27T16:20:08.007Z,26.7
2018-06-27T16:22:07.178Z,26.7
2018-06-27T16:24:04.923Z,26.7
2018-06-27T16:26:04.849Z,26.7
2018-06-27T16:28:08.150Z,26.6
2018-06-27T16:30:05.361Z,26.7
2018-06-27T16:32:05.067Z,26.7
2018-06-27T16:34:07.311Z,26.6
2018-06-27T16:36:07.809Z,26.6
2018-06-27T16:38:05.512Z,26.6
2018-06-27T16:40:12.535Z,26.7
2018-06-27T16:42:05.257Z,26.7
2018-06-27T16:44:05.455Z,26.8
2018-06-27T16:46:05.388Z,26.8
2018-06-27T16:48:07.854Z,26.7
2018-06-27T16:50:05.579Z,26.7
2018-06-27T16:52:10.445Z,26.7
2018-06-27T16:54:04.782Z,26.7
2018-06-27T16:56:04.865Z,26.7
2018-06-27T16:58:10.624Z,26.8
2018-06-27T17:00:05.644Z,26.8
2018-06-27T17:02:08.879Z,26.8
2018-06-27T17:04:05.874Z,26.8
2018-06-27T17:06:05.428Z,26.8
2018-06-27T17:08:04.829Z,26.8
2018-06-27T17:10:05.510Z,26.8
2018-06-27T17:12:05.207Z,26.8
2018-06-27T17:14:05.169Z,26.8
2018-06-27T17:16:07.652Z,26.8
2018-06-27T17:18:08.082Z,26.8
2018-06-27T17:20:04.779Z,26.8
2018-06-27T17:22:05.447Z,26.9
2018-06-27T17:24:05.384Z,26.9
2018-06-27T17:26:10.359Z,26.9
2018-06-27T17:28:07.721Z,26.9
2018-06-27T17:30:04.955Z,26.9
2018-06-27T17:32:04.611Z,26.9
2018-06-27T17:34:05.488Z,26.9
2018-06-27T17:36:05.172Z,26.9
2018-06-27T17:38:07.535Z,26.9
2018-06-27T17:40:04.801Z,26.9
2018-06-27T17:42:05.483Z,26.9
2018-06-27T17:44:04.932Z,26.9
2018-06-27T17:46:11.652Z,26.9
2018-06-27T17:48:05.768Z,26.9
2018-06-27T17:50:04.760Z,26.9
2018-06-27T17:52:05.490Z,26.9
2018-06-27T17:54:07.732Z,26.9
2018-06-27T17:56:05.452Z,26.9
2018-06-27T17:58:07.719Z,26.9
2018-06-27T18:00:08.022Z,26.9
2018-06-27T18:02:07.275Z,26.9
2018-06-27T18:04:05.205Z,26.9
2018-06-27T18:06:04.874Z,26.9
2018-06-27T18:08:04.802Z,26.9
2018-06-27T18:10:07.520Z,26.9
2018-06-27T18:12:10.415Z,26.9
2018-06-27T18:14:05.109Z,26.9
2018-06-27T18:16:12.375Z,26.9
2018-06-27T18:18:05.261Z,26.9
2018-06-27T18:20:08.028Z,26.9
2018-06-27T18:22:05.233Z,26.9
2018-06-27T18:24:05.453Z,26.9
2018-06-27T18:26:05.415Z,26.9
2018-06-27T18:28:07.714Z,26.9
2018-06-27T18:30:07.926Z,26.9
2018-06-27T18:32:07.321Z,26.9
2018-06-27T18:34:07.511Z,26.9
2018-06-27T18:36:07.741Z,26.9
2018-06-27T18:38:05.122Z,26.9
2018-06-27T18:40:04.787Z,27
2018-06-27T18:42:05.644Z,26.9
2018-06-27T18:44:05.282Z,26.9
2018-06-27T18:46:04.937Z,26.9
2018-06-27T18:48:05.588Z,26.9
2018-06-27T18:50:05.251Z,26.9
2018-06-27T18:52:04.942Z,26.9
2018-06-27T18:54:15.721Z,26.9
2018-06-27T18:56:05.411Z,26.9
2018-06-27T18:58:04.636Z,26.9
2018-06-27T19:00:05.345Z,26.9
2018-06-27T19:02:05.074Z,26.9
2018-06-27T19:04:04.733Z,26.9
2018-06-27T19:06:05.576Z,26.9
2018-06-27T19:08:05.391Z,26.9
2018-06-27T19:10:05.312Z,27
2018-06-27T19:12:05.082Z,27
2018-06-27T19:14:04.776Z,27
2018-06-27T19:16:04.947Z,27
2018-06-27T19:18:04.973Z,26.9
2018-06-27T19:20:05.025Z,27
2018-06-27T19:22:07.273Z,27
2018-06-27T19:24:04.954Z,26.9
2018-06-27T19:26:04.647Z,27
2018-06-27T19:28:05.295Z,26.9
2018-06-27T19:30:04.956Z,26.9
2018-06-27T19:32:04.704Z,26.9
2018-06-27T19:34:05.420Z,26.9
2018-06-27T19:36:05.100Z,26.9
2018-06-27T19:38:09.892Z,26.9
2018-06-27T19:40:04.691Z,26.9
2018-06-27T19:42:05.377Z,26.9
2018-06-27T19:44:05.595Z,26.9
2018-06-27T19:46:05.329Z,26.9
2018-06-27T19:48:04.992Z,26.9
2018-06-27T19:50:04.704Z,26.9
2018-06-27T19:52:05.395Z,26.9
2018-06-27T19:54:05.086Z,26.9
2018-06-27T19:56:05.382Z,26.9
2018-06-27T19:58:05.066Z,26.9
2018-06-27T20:00:04.997Z,26.9
2018-06-27T20:02:05.254Z,26.9
2018-06-27T20:04:04.737Z,26.9
2018-06-27T20:06:05.415Z,26.9
2018-06-27T20:08:05.173Z,26.9
2018-06-27T20:10:05.517Z,26.9
2018-06-27T20:12:05.445Z,26.9
2018-06-27T20:14:05.636Z,26.9
2018-06-27T20:16:05.238Z,26.9
2018-06-27T20:18:05.078Z,26.9
2018-06-27T20:20:04.996Z,26.9
2018-06-27T20:22:07.532Z,26.9
2018-06-27T20:24:07.804Z,26.9
2018-06-27T20:26:04.697Z,26.9
2018-06-27T20:28:10.464Z,26.9
2018-06-27T20:30:10.316Z,26.9
2018-06-27T20:32:05.015Z,26.9
2018-06-27T20:34:04.728Z,26.9
2018-06-27T20:36:07.922Z,26.8
2018-06-27T20:38:08.123Z,26.9
2018-06-27T20:40:04.855Z,26.9
2018-06-27T20:42:08.080Z,26.8
2018-06-27T20:44:04.819Z,26.8
2018-06-27T20:46:05.531Z,26.9
2018-06-27T20:48:05.217Z,26.8
2018-06-27T20:50:10.029Z,26.9
2018-06-27T20:52:04.740Z,26.8
2018-06-27T20:54:15.533Z,26.8
2018-06-27T20:56:05.196Z,26.9
2018-06-27T20:58:04.846Z,26.8
2018-06-27T21:00:05.582Z,26.8
2018-06-27T21:02:05.275Z,26.8
2018-06-27T21:04:04.927Z,26.8
2018-06-27T21:06:04.646Z,26.9
2018-06-27T21:08:05.347Z,26.8
2018-06-27T21:10:05.659Z,26.8
2018-06-27T21:12:07.897Z,26.8
2018-06-27T21:14:05.613Z,26.8
2018-06-27T21:16:05.360Z,26.8
2018-06-27T21:18:05.254Z,26.8
2018-06-27T21:20:05.445Z,26.9
2018-06-27T21:22:10.785Z,26.8
2018-06-27T21:24:04.735Z,26.8
2018-06-27T21:26:05.501Z,26.8
2018-06-27T21:28:05.034Z,26.8
2018-06-27T21:30:07.264Z,26.8
2018-06-27T21:32:07.151Z,26.8
2018-06-27T21:34:07.368Z,26.8
2018-06-27T21:36:05.082Z,26.8
2018-06-27T21:38:04.820Z,26.8
2018-06-27T21:40:05.057Z,26.8
2018-06-27T21:42:04.800Z,26.8
2018-06-27T21:44:05.544Z,26.8
2018-06-27T21:46:05.257Z,26.8
2018-06-27T21:48:04.948Z,26.8
2018-06-27T21:50:09.644Z,26.8
2018-06-27T21:52:05.300Z,26.8
2018-06-27T21:54:05.129Z,26.8
2018-06-27T21:56:07.329Z,26.8
2018-06-27T21:58:05.497Z,26.8
2018-06-27T22:00:05.161Z,26.8
2018-06-27T22:02:04.978Z,26.8
2018-06-27T22:04:04.778Z,26.8
2018-06-27T22:06:05.583Z,26.8
2018-06-27T22:08:05.745Z,26.8
2018-06-27T22:10:05.105Z,26.7
2018-06-27T22:12:05.067Z,26.8
2018-06-27T22:14:05.680Z,26.7
2018-06-27T22:16:04.789Z,26.7
2018-06-27T22:18:04.967Z,26.7
2018-06-27T22:20:10.216Z,26.6
2018-06-27T22:22:07.498Z,26.6
2018-06-27T22:24:06.207Z,26.6
2018-06-27T22:26:05.087Z,26.6
2018-06-27T22:28:05.343Z,26.6
2018-06-27T22:30:05.893Z,26.6
2018-06-27T22:32:05.020Z,26.6
2018-06-27T22:34:04.677Z,26.6
2018-06-27T22:36:07.302Z,26.5
2018-06-27T22:38:04.718Z,26.5
2018-06-27T22:40:05.398Z,26.5
2018-06-27T22:42:05.098Z,26.5
2018-06-27T22:44:04.850Z,26.5
2018-06-27T22:46:08.291Z,26.5
2018-06-27T22:48:04.965Z,26.5
2018-06-27T22:50:04.721Z,26.4
2018-06-27T22:52:18.185Z,26.4
2018-06-27T22:54:04.860Z,26.4
2018-06-27T22:56:04.797Z,26.4
2018-06-27T22:58:05.128Z,26.4
2018-06-27T23:00:04.838Z,26.4
2018-06-27T23:02:05.544Z,26.4
2018-06-27T23:04:07.754Z,26.3
2018-06-27T23:06:08.055Z,26.3
2018-06-27T23:08:05.457Z,26.3
2018-06-27T23:10:05.191Z,26.3
2018-06-27T23:12:05.046Z,26.3
2018-06-27T23:14:04.789Z,26.3
2018-06-27T23:16:05.568Z,26.3
2018-06-27T23:18:05.487Z,26.3
2018-06-27T23:20:06.182Z,26.2
2018-06-27T23:22:04.857Z,26.2
2018-06-27T23:24:05.546Z,26.2
2018-06-27T23:26:05.283Z,26.3
2018-06-27T23:28:07.466Z,26.2
2018-06-27T23:30:05.214Z,26.2
2018-06-27T23:32:05.524Z,26.2
2018-06-27T23:34:05.194Z,26.2
2018-06-27T23:36:04.933Z,26.2
2018-06-27T23:38:04.658Z,26.2
2018-06-27T23:40:04.824Z,26.2
2018-06-27T23:42:10.552Z,26.2
2018-06-27T23:44:04.725Z,26.2
2018-06-27T23:46:05.403Z,26.2
2018-06-27T23:48:05.176Z,26.2
2018-06-27T23:50:04.854Z,26.1
2018-06-27T23:52:08.073Z,26.2
2018-06-27T23:54:04.852Z,26.1
2018-06-27T23:56:10.583Z,26.1
2018-06-27T23:58:07.291Z,26.1
